Terminal Aerodrome Forecast
Issued by NWS

Home | Current Version | Previous Version | Text Only | Print | Product List | Glossary On
Versions: 1 2 3 4 5 6 7 8 9 10 11 12 13 14 15 16 17 18 19 20
871
FTUS46 KSEW 251725
TAFPAE
TAF
KPAE 251725Z 2518/2618 20008KT P6SM VCSH SCT020 BKN045
      TEMPO 2518/2520 BKN020
     FM252200 21008KT P6SM SCT035 BKN050
     FM260100 18005KT P6SM SCT035 SCT050
     FM260600 15005KT P6SM SCT050
     FM261200 13007KT P6SM BKN070 OVC120=

USA.gov is the U.S. government's official web portal to all federal, state and local government web resources and services.